sensor_id;sensor_type;location;lat;lon;timestamp;pressure;altitude;pressure_sealevel;temperature;humidity
74960;BME280;63518;49.572;1.106;2023-11-22T00:00:19;100741.94;;;8.36;100.00
74960;BME280;63518;49.572;1.106;2023-11-22T00:02:47;100771.88;;;8.32;100.00
74960;BME280;63518;49.572;1.106;2023-11-22T00:05:14;100768.38;;;8.37;100.00
74960;BME280;63518;49.572;1.106;2023-11-22T00:07:40;100752.78;;;8.09;100.00
74960;BME280;63518;49.572;1.106;2023-11-22T00:10:08;100765.00;;;8.01;100.00
74960;BME280;63518;49.572;1.106;2023-11-22T00:12:35;100761.19;;;8.19;100.00
74960;BME280;63518;49.572;1.106;2023-11-22T00:15:06;100768.09;;;8.05;100.00
74960;BME280;63518;49.572;1.106;2023-11-22T00:17:34;100752.94;;;8.36;100.00
74960;BME280;63518;49.572;1.106;2023-11-22T00:20:01;100755.44;;;8.21;100.00
74960;BME280;63518;49.572;1.106;2023-11-22T00:22:32;100771.13;;;8.20;100.00
74960;BME280;63518;49.572;1.106;2023-11-22T00:24:59;100762.56;;;8.33;100.00
74960;BME280;63518;49.572;1.106;2023-11-22T00:27:28;100772.50;;;8.06;100.00
74960;BME280;63518;49.572;1.106;2023-11-22T00:29:56;100773.41;;;7.95;100.00
74960;BME280;63518;49.572;1.106;2023-11-22T00:32:24;100783.34;;;7.55;100.00
74960;BME280;63518;49.572;1.106;2023-11-22T00:34:52;100745.41;;;7.69;100.00
74960;BME280;63518;49.572;1.106;2023-11-22T00:37:19;100770.81;;;7.88;100.00
74960;BME280;63518;49.572;1.106;2023-11-22T00:39:46;100754.31;;;7.88;100.00
74960;BME280;63518;49.572;1.106;2023-11-22T00:42:13;100766.84;;;7.96;100.00
74960;BME280;63518;49.572;1.106;2023-11-22T00:44:40;100757.38;;;7.92;100.00
74960;BME280;63518;49.572;1.106;2023-11-22T00:47:06;100751.47;;;7.83;100.00
74960;BME280;63518;49.572;1.106;2023-11-22T00:49:33;100757.81;;;7.72;100.00
74960;BME280;63518;49.572;1.106;2023-11-22T00:52:00;100749.66;;;8.05;100.00
74960;BME280;63518;49.572;1.106;2023-11-22T00:54:29;100772.44;;;7.72;100.00
74960;BME280;63518;49.572;1.106;2023-11-22T00:56:56;100755.84;;;7.96;100.00
74960;BME280;63518;49.572;1.106;2023-11-22T00:59:22;100775.41;;;7.71;100.00
74960;BME280;63518;49.572;1.106;2023-11-22T01:01:49;100764.81;;;7.51;100.00
74960;BME280;63518;49.572;1.106;2023-11-22T01:04:16;100759.19;;;7.57;100.00
74960;BME280;63518;49.572;1.106;2023-11-22T01:06:43;100749.53;;;7.15;100.00
74960;BME280;63518;49.572;1.106;2023-11-22T01:09:09;100759.16;;;7.29;100.00
74960;BME280;63518;49.572;1.106;2023-11-22T01:11:39;100759.75;;;7.31;100.00
74960;BME280;63518;49.572;1.106;2023-11-22T01:14:05;100746.66;;;7.10;100.00
74960;BME280;63518;49.572;1.106;2023-11-22T01:16:32;100767.63;;;7.27;100.00
74960;BME280;63518;49.572;1.106;2023-11-22T01:18:59;100744.06;;;7.43;100.00
74960;BME280;63518;49.572;1.106;2023-11-22T01:21:27;100739.06;;;7.40;100.00
74960;BME280;63518;49.572;1.106;2023-11-22T01:23:54;100752.03;;;7.16;100.00
74960;BME280;63518;49.572;1.106;2023-11-22T01:26:21;100771.28;;;6.81;100.00
74960;BME280;63518;49.572;1.106;2023-11-22T01:28:48;100769.50;;;6.75;100.00
74960;BME280;63518;49.572;1.106;2023-11-22T01:31:14;100755.06;;;6.91;100.00
74960;BME280;63518;49.572;1.106;2023-11-22T01:33:41;100760.06;;;7.06;100.00
74960;BME280;63518;49.572;1.106;2023-11-22T01:36:08;100778.09;;;6.90;100.00
74960;BME280;63518;49.572;1.106;2023-11-22T01:38:35;100778.09;;;6.79;100.00
74960;BME280;63518;49.572;1.106;2023-11-22T01:41:02;100783.81;;;6.77;100.00
74960;BME280;63518;49.572;1.106;2023-11-22T01:43:29;100802.66;;;6.97;100.00
74960;BME280;63518;49.572;1.106;2023-11-22T01:45:55;100806.97;;;6.69;100.00
74960;BME280;63518;49.572;1.106;2023-11-22T01:48:23;100806.00;;;6.87;100.00
74960;BME280;63518;49.572;1.106;2023-11-22T01:50:50;100793.56;;;6.50;100.00
74960;BME280;63518;49.572;1.106;2023-11-22T01:53:18;100789.78;;;6.62;100.00
74960;BME280;63518;49.572;1.106;2023-11-22T01:55:46;100791.66;;;6.73;100.00
74960;BME280;63518;49.572;1.106;2023-11-22T01:58:13;100788.44;;;6.65;100.00
74960;BME280;63518;49.572;1.106;2023-11-22T02:00:50;100806.00;;;6.87;100.00
74960;BME280;63518;49.572;1.106;2023-11-22T02:03:18;100792.16;;;6.94;100.00
74960;BME280;63518;49.572;1.106;2023-11-22T02:05:45;100811.72;;;6.97;100.00
74960;BME280;63518;49.572;1.106;2023-11-22T02:08:13;100804.94;;;7.00;100.00
74960;BME280;63518;49.572;1.106;2023-11-22T02:10:40;100804.81;;;6.83;100.00
74960;BME280;63518;49.572;1.106;2023-11-22T02:13:07;100802.91;;;6.95;100.00
74960;BME280;63518;49.572;1.106;2023-11-22T02:15:34;100800.41;;;6.70;100.00
74960;BME280;63518;49.572;1.106;2023-11-22T02:18:04;100803.38;;;6.69;100.00
74960;BME280;63518;49.572;1.106;2023-11-22T02:20:39;100811.13;;;6.60;100.00
74960;BME280;63518;49.572;1.106;2023-11-22T02:23:10;100821.03;;;6.73;100.00
74960;BME280;63518;49.572;1.106;2023-11-22T02:25:38;100822.06;;;6.49;100.00
74960;BME280;63518;49.572;1.106;2023-11-22T02:28:05;100799.06;;;6.50;100.00
74960;BME280;63518;49.572;1.106;2023-11-22T02:30:35;100800.75;;;6.62;100.00
74960;BME280;63518;49.572;1.106;2023-11-22T02:33:03;100822.22;;;6.65;100.00
74960;BME280;63518;49.572;1.106;2023-11-22T02:35:32;100802.31;;;6.93;100.00
74960;BME280;63518;49.572;1.106;2023-11-22T02:38:00;100816.41;;;6.85;100.00
74960;BME280;63518;49.572;1.106;2023-11-22T02:40:27;100822.59;;;7.16;100.00
74960;BME280;63518;49.572;1.106;2023-11-22T02:42:55;100794.53;;;6.55;100.00
74960;BME280;63518;49.572;1.106;2023-11-22T02:45:28;100834.19;;;7.06;100.00
74960;BME280;63518;49.572;1.106;2023-11-22T02:47:55;100841.81;;;7.04;100.00
74960;BME280;63518;49.572;1.106;2023-11-22T02:50:22;100834.50;;;6.63;100.00
74960;BME280;63518;49.572;1.106;2023-11-22T02:52:49;100844.06;;;6.95;100.00
74960;BME280;63518;49.572;1.106;2023-11-22T02:55:15;100839.53;;;6.78;100.00
74960;BME280;63518;49.572;1.106;2023-11-22T02:57:42;100855.28;;;6.59;100.00
74960;BME280;63518;49.572;1.106;2023-11-22T03:00:10;100847.16;;;6.64;100.00
74960;BME280;63518;49.572;1.106;2023-11-22T03:02:42;100846.03;;;6.41;100.00
74960;BME280;63518;49.572;1.106;2023-11-22T03:05:09;100839.16;;;6.62;100.00
74960;BME280;63518;49.572;1.106;2023-11-22T03:07:37;100843.28;;;6.41;100.00
74960;BME280;63518;49.572;1.106;2023-11-22T03:10:04;100848.66;;;6.36;100.00
74960;BME280;63518;49.572;1.106;2023-11-22T03:12:31;100851.84;;;6.33;100.00
74960;BME280;63518;49.572;1.106;2023-11-22T03:14:58;100864.28;;;6.48;100.00
74960;BME280;63518;49.572;1.106;2023-11-22T03:17:29;100859.75;;;6.41;100.00
74960;BME280;63518;49.572;1.106;2023-11-22T03:19:59;100878.16;;;6.53;100.00
74960;BME280;63518;49.572;1.106;2023-11-22T03:22:27;100881.16;;;6.63;100.00
74960;BME280;63518;49.572;1.106;2023-11-22T03:24:58;100867.19;;;6.64;100.00
74960;BME280;63518;49.572;1.106;2023-11-22T03:27:25;100873.03;;;6.26;100.00
74960;BME280;63518;49.572;1.106;2023-11-22T03:29:52;100876.19;;;6.41;100.00
74960;BME280;63518;49.572;1.106;2023-11-22T03:32:19;100889.31;;;6.39;100.00
74960;BME280;63518;49.572;1.106;2023-11-22T03:34:46;100897.34;;;6.53;100.00
74960;BME280;63518;49.572;1.106;2023-11-22T03:37:13;100896.94;;;6.37;100.00
74960;BME280;63518;49.572;1.106;2023-11-22T03:39:39;100907.16;;;6.60;100.00
74960;BME280;63518;49.572;1.106;2023-11-22T03:42:06;100898.22;;;6.65;100.00
74960;BME280;63518;49.572;1.106;2023-11-22T03:44:33;100908.25;;;6.29;100.00
74960;BME280;63518;49.572;1.106;2023-11-22T03:47:00;100901.53;;;6.55;100.00
74960;BME280;63518;49.572;1.106;2023-11-22T03:49:27;100890.72;;;6.30;100.00
74960;BME280;63518;49.572;1.106;2023-11-22T03:51:54;100896.63;;;6.57;100.00
74960;BME280;63518;49.572;1.106;2023-11-22T03:54:21;100890.03;;;6.35;100.00
74960;BME280;63518;49.572;1.106;2023-11-22T03:56:48;100899.69;;;6.37;100.00
74960;BME280;63518;49.572;1.106;2023-11-22T03:59:14;100876.41;;;6.28;100.00
74960;BME280;63518;49.572;1.106;2023-11-22T04:01:41;100908.91;;;6.13;100.00
74960;BME280;63518;49.572;1.106;2023-11-22T04:04:08;100914.75;;;6.47;100.00
74960;BME280;63518;49.572;1.106;2023-11-22T04:06:36;100905.69;;;6.16;100.00
74960;BME280;63518;49.572;1.106;2023-11-22T04:09:03;100916.25;;;6.42;100.00
74960;BME280;63518;49.572;1.106;2023-11-22T04:11:30;100910.50;;;6.62;100.00
74960;BME280;63518;49.572;1.106;2023-11-22T04:13:57;100896.22;;;6.42;100.00
74960;BME280;63518;49.572;1.106;2023-11-22T04:16:24;100903.91;;;6.52;100.00
74960;BME280;63518;49.572;1.106;2023-11-22T04:18:52;100932.53;;;6.56;100.00
74960;BME280;63518;49.572;1.106;2023-11-22T04:21:19;100930.78;;;6.31;100.00
74960;BME280;63518;49.572;1.106;2023-11-22T04:23:46;100925.09;;;6.14;100.00
74960;BME280;63518;49.572;1.106;2023-11-22T04:26:12;100940.34;;;6.40;100.00
74960;BME280;63518;49.572;1.106;2023-11-22T04:28:39;100948.19;;;6.07;100.00
74960;BME280;63518;49.572;1.106;2023-11-22T04:31:06;100942.13;;;6.35;100.00
74960;BME280;63518;49.572;1.106;2023-11-22T04:33:35;100953.94;;;6.17;100.00
74960;BME280;63518;49.572;1.106;2023-11-22T04:36:03;100951.44;;;6.15;100.00
74960;BME280;63518;49.572;1.106;2023-11-22T04:38:29;100945.81;;;5.74;100.00
74960;BME280;63518;49.572;1.106;2023-11-22T04:40:56;100971.84;;;5.83;100.00
74960;BME280;63518;49.572;1.106;2023-11-22T04:43:23;100954.41;;;5.77;100.00
74960;BME280;63518;49.572;1.106;2023-11-22T04:45:50;100981.22;;;5.94;100.00
74960;BME280;63518;49.572;1.106;2023-11-22T04:48:16;100977.56;;;5.81;100.00
74960;BME280;63518;49.572;1.106;2023-11-22T04:50:43;100968.16;;;5.52;100.00
74960;BME280;63518;49.572;1.106;2023-11-22T04:53:10;100966.25;;;5.71;100.00
74960;BME280;63518;49.572;1.106;2023-11-22T04:55:37;100972.63;;;5.47;100.00
74960;BME280;63518;49.572;1.106;2023-11-22T04:58:04;100968.78;;;5.29;100.00
74960;BME280;63518;49.572;1.106;2023-11-22T05:00:30;100956.19;;;5.03;100.00
74960;BME280;63518;49.572;1.106;2023-11-22T05:02:57;100983.16;;;5.25;100.00
74960;BME280;63518;49.572;1.106;2023-11-22T05:05:24;100996.56;;;5.33;100.00
74960;BME280;63518;49.572;1.106;2023-11-22T05:07:51;100980.06;;;5.15;100.00
74960;BME280;63518;49.572;1.106;2023-11-22T05:10:17;100996.50;;;5.15;100.00
74960;BME280;63518;49.572;1.106;2023-11-22T05:12:44;101011.19;;;5.20;100.00
74960;BME280;63518;49.572;1.106;2023-11-22T05:15:11;101016.13;;;5.37;100.00
74960;BME280;63518;49.572;1.106;2023-11-22T05:17:38;101005.22;;;5.05;100.00
74960;BME280;63518;49.572;1.106;2023-11-22T05:20:09;101013.03;;;5.01;100.00
74960;BME280;63518;49.572;1.106;2023-11-22T05:22:37;101006.97;;;5.24;100.00
74960;BME280;63518;49.572;1.106;2023-11-22T05:25:05;100995.06;;;5.12;100.00
74960;BME280;63518;49.572;1.106;2023-11-22T05:27:33;101003.22;;;5.19;100.00
74960;BME280;63518;49.572;1.106;2023-11-22T05:30:00;100987.84;;;5.18;100.00
74960;BME280;63518;49.572;1.106;2023-11-22T05:32:28;100992.78;;;5.09;100.00
74960;BME280;63518;49.572;1.106;2023-11-22T05:34:55;101006.78;;;5.19;100.00
74960;BME280;63518;49.572;1.106;2023-11-22T05:37:22;101017.22;;;4.72;100.00
74960;BME280;63518;49.572;1.106;2023-11-22T05:39:51;101004.72;;;4.83;100.00
74960;BME280;63518;49.572;1.106;2023-11-22T05:42:17;101033.63;;;5.36;100.00
74960;BME280;63518;49.572;1.106;2023-11-22T05:44:44;101048.44;;;4.96;100.00
74960;BME280;63518;49.572;1.106;2023-11-22T05:47:11;101042.97;;;4.58;100.00
74960;BME280;63518;49.572;1.106;2023-11-22T05:49:39;101045.56;;;4.85;100.00
74960;BME280;63518;49.572;1.106;2023-11-22T05:52:06;101047.72;;;5.07;100.00
74960;BME280;63518;49.572;1.106;2023-11-22T05:54:33;101061.84;;;5.04;100.00
74960;BME280;63518;49.572;1.106;2023-11-22T05:57:00;101058.34;;;4.91;100.00
74960;BME280;63518;49.572;1.106;2023-11-22T05:59:26;101051.66;;;4.42;100.00
74960;BME280;63518;49.572;1.106;2023-11-22T06:01:53;101060.66;;;4.94;100.00
74960;BME280;63518;49.572;1.106;2023-11-22T06:04:20;101050.56;;;4.94;100.00
74960;BME280;63518;49.572;1.106;2023-11-22T06:06:47;101037.16;;;4.80;100.00
74960;BME280;63518;49.572;1.106;2023-11-22T06:09:14;101035.81;;;4.57;100.00
74960;BME280;63518;49.572;1.106;2023-11-22T06:11:41;101045.63;;;4.71;100.00
74960;BME280;63518;49.572;1.106;2023-11-22T06:14:08;101034.28;;;4.99;100.00
74960;BME280;63518;49.572;1.106;2023-11-22T06:16:35;101043.53;;;5.05;100.00
74960;BME280;63518;49.572;1.106;2023-11-22T06:19:01;101046.72;;;5.02;100.00
74960;BME280;63518;49.572;1.106;2023-11-22T06:21:28;101066.31;;;4.92;100.00
74960;BME280;63518;49.572;1.106;2023-11-22T06:23:55;101065.66;;;4.65;100.00
74960;BME280;63518;49.572;1.106;2023-11-22T06:26:25;101065.88;;;4.64;100.00
74960;BME280;63518;49.572;1.106;2023-11-22T06:28:52;101035.97;;;4.69;100.00
74960;BME280;63518;49.572;1.106;2023-11-22T06:31:19;101040.94;;;4.40;100.00
74960;BME280;63518;49.572;1.106;2023-11-22T06:33:45;101049.69;;;4.62;100.00
74960;BME280;63518;49.572;1.106;2023-11-22T06:36:12;101009.75;;;4.03;100.00
74960;BME280;63518;49.572;1.106;2023-11-22T06:38:41;101048.91;;;4.42;100.00
74960;BME280;63518;49.572;1.106;2023-11-22T06:41:08;101051.75;;;4.67;100.00
74960;BME280;63518;49.572;1.106;2023-11-22T06:43:35;101038.22;;;4.34;100.00
74960;BME280;63518;49.572;1.106;2023-11-22T06:46:02;101067.22;;;4.41;100.00
74960;BME280;63518;49.572;1.106;2023-11-22T06:48:32;101062.13;;;4.52;100.00
74960;BME280;63518;49.572;1.106;2023-11-22T06:51:00;101077.84;;;4.69;100.00
74960;BME280;63518;49.572;1.106;2023-11-22T06:53:27;101072.88;;;4.53;100.00
74960;BME280;63518;49.572;1.106;2023-11-22T06:55:54;101089.13;;;4.28;100.00
74960;BME280;63518;49.572;1.106;2023-11-22T06:58:21;101074.00;;;4.26;100.00
74960;BME280;63518;49.572;1.106;2023-11-22T07:00:48;101095.72;;;4.14;100.00
74960;BME280;63518;49.572;1.106;2023-11-22T07:03:15;101094.88;;;4.00;100.00
74960;BME280;63518;49.572;1.106;2023-11-22T07:05:43;101108.91;;;4.24;100.00
74960;BME280;63518;49.572;1.106;2023-11-22T07:08:10;101093.75;;;4.28;100.00
74960;BME280;63518;49.572;1.106;2023-11-22T07:10:43;101081.84;;;4.02;100.00
74960;BME280;63518;49.572;1.106;2023-11-22T07:13:11;101078.72;;;3.85;100.00
74960;BME280;63518;49.572;1.106;2023-11-22T07:15:39;101063.59;;;3.83;100.00
74960;BME280;63518;49.572;1.106;2023-11-22T07:18:07;101049.56;;;3.46;100.00
74960;BME280;63518;49.572;1.106;2023-11-22T07:20:36;101071.97;;;4.01;100.00
74960;BME280;63518;49.572;1.106;2023-11-22T07:23:03;101070.25;;;4.13;100.00
74960;BME280;63518;49.572;1.106;2023-11-22T07:25:30;101079.09;;;4.15;100.00
74960;BME280;63518;49.572;1.106;2023-11-22T07:27:58;101056.66;;;3.87;100.00
74960;BME280;63518;49.572;1.106;2023-11-22T07:30:25;101087.91;;;4.17;100.00
74960;BME280;63518;49.572;1.106;2023-11-22T07:32:56;101100.53;;;4.12;100.00
74960;BME280;63518;49.572;1.106;2023-11-22T07:35:25;101102.63;;;4.10;100.00
74960;BME280;63518;49.572;1.106;2023-11-22T07:37:54;101095.28;;;4.10;100.00
74960;BME280;63518;49.572;1.106;2023-11-22T07:40:21;101100.13;;;4.08;100.00
74960;BME280;63518;49.572;1.106;2023-11-22T07:42:49;101126.56;;;4.28;100.00
74960;BME280;63518;49.572;1.106;2023-11-22T07:45:16;101109.34;;;4.20;100.00
74960;BME280;63518;49.572;1.106;2023-11-22T07:47:43;101126.38;;;4.16;100.00
74960;BME280;63518;49.572;1.106;2023-11-22T07:50:11;101124.09;;;3.93;100.00
74960;BME280;63518;49.572;1.106;2023-11-22T07:52:38;101135.44;;;4.16;100.00
74960;BME280;63518;49.572;1.106;2023-11-22T07:55:07;101140.44;;;4.26;100.00
74960;BME280;63518;49.572;1.106;2023-11-22T07:57:34;101142.94;;;4.41;100.00
74960;BME280;63518;49.572;1.106;2023-11-22T08:00:01;101152.38;;;4.52;100.00
74960;BME280;63518;49.572;1.106;2023-11-22T08:02:31;101140.66;;;4.38;100.00
74960;BME280;63518;49.572;1.106;2023-11-22T08:05:00;101145.06;;;4.39;100.00
74960;BME280;63518;49.572;1.106;2023-11-22T08:07:29;101134.59;;;4.09;100.00
74960;BME280;63518;49.572;1.106;2023-11-22T08:09:56;101140.44;;;4.26;100.00
74960;BME280;63518;49.572;1.106;2023-11-22T08:12:23;101169.28;;;4.22;100.00
74960;BME280;63518;49.572;1.106;2023-11-22T08:14:50;101160.84;;;4.24;100.00
74960;BME280;63518;49.572;1.106;2023-11-22T08:17:18;101167.78;;;4.19;100.00
74960;BME280;63518;49.572;1.106;2023-11-22T08:19:46;101155.78;;;4.20;100.00
74960;BME280;63518;49.572;1.106;2023-11-22T08:22:14;101168.00;;;4.38;100.00
74960;BME280;63518;49.572;1.106;2023-11-22T08:24:41;101169.06;;;4.30;100.00
74960;BME280;63518;49.572;1.106;2023-11-22T08:27:07;101168.38;;;4.55;100.00
74960;BME280;63518;49.572;1.106;2023-11-22T08:29:34;101170.41;;;4.72;100.00
74960;BME280;63518;49.572;1.106;2023-11-22T08:32:01;101178.09;;;4.95;100.00
74960;BME280;63518;49.572;1.106;2023-11-22T08:34:28;101180.03;;;4.82;100.00
74960;BME280;63518;49.572;1.106;2023-11-22T08:36:55;101147.72;;;4.59;100.00
74960;BME280;63518;49.572;1.106;2023-11-22T08:39:24;101171.38;;;4.91;100.00
74960;BME280;63518;49.572;1.106;2023-11-22T08:41:50;101172.44;;;5.35;100.00
74960;BME280;63518;49.572;1.106;2023-11-22T08:44:17;101163.06;;;5.49;100.00
74960;BME280;63518;49.572;1.106;2023-11-22T08:46:44;101152.38;;;5.41;100.00
74960;BME280;63518;49.572;1.106;2023-11-22T08:49:12;101165.94;;;5.61;100.00
74960;BME280;63518;49.572;1.106;2023-11-22T08:51:41;101157.44;;;5.69;100.00
74960;BME280;63518;49.572;1.106;2023-11-22T08:54:09;101143.22;;;5.79;100.00
74960;BME280;63518;49.572;1.106;2023-11-22T08:56:36;101157.94;;;5.84;100.00
74960;BME280;63518;49.572;1.106;2023-11-22T08:59:03;101153.59;;;5.77;100.00
74960;BME280;63518;49.572;1.106;2023-11-22T09:01:31;101162.69;;;5.71;100.00
74960;BME280;63518;49.572;1.106;2023-11-22T09:03:58;101163.16;;;5.68;100.00
74960;BME280;63518;49.572;1.106;2023-11-22T09:06:25;101168.66;;;5.93;100.00
74960;BME280;63518;49.572;1.106;2023-11-22T09:08:52;101153.81;;;5.75;100.00
74960;BME280;63518;49.572;1.106;2023-11-22T09:11:18;101179.63;;;5.61;100.00
74960;BME280;63518;49.572;1.106;2023-11-22T09:13:48;101174.13;;;5.29;100.00
74960;BME280;63518;49.572;1.106;2023-11-22T09:16:16;101178.13;;;5.65;100.00
74960;BME280;63518;49.572;1.106;2023-11-22T09:18:46;101166.91;;;6.05;100.00
74960;BME280;63518;49.572;1.106;2023-11-22T09:21:13;101172.88;;;6.20;100.00
74960;BME280;63518;49.572;1.106;2023-11-22T09:23:43;101160.94;;;6.88;100.00
74960;BME280;63518;49.572;1.106;2023-11-22T09:26:10;101185.56;;;7.43;100.00
74960;BME280;63518;49.572;1.106;2023-11-22T09:28:37;101168.09;;;6.89;100.00
74960;BME280;63518;49.572;1.106;2023-11-22T09:31:05;101156.63;;;6.18;100.00
74960;BME280;63518;49.572;1.106;2023-11-22T09:33:33;101173.59;;;6.52;100.00
74960;BME280;63518;49.572;1.106;2023-11-22T09:35:59;101163.41;;;6.16;100.00
74960;BME280;63518;49.572;1.106;2023-11-22T09:38:26;101167.50;;;6.68;100.00
74960;BME280;63518;49.572;1.106;2023-11-22T09:40:53;101174.28;;;6.48;100.00
74960;BME280;63518;49.572;1.106;2023-11-22T09:43:20;101175.03;;;7.40;100.00
74960;BME280;63518;49.572;1.106;2023-11-22T09:45:48;101183.06;;;7.53;100.00
74960;BME280;63518;49.572;1.106;2023-11-22T09:48:23;101174.09;;;6.97;100.00
74960;BME280;63518;49.572;1.106;2023-11-22T09:51:04;101188.56;;;7.83;100.00
74960;BME280;63518;49.572;1.106;2023-11-22T09:53:33;101184.28;;;7.45;100.00
74960;BME280;63518;49.572;1.106;2023-11-22T09:56:02;101188.69;;;6.98;100.00
74960;BME280;63518;49.572;1.106;2023-11-22T09:58:30;101186.25;;;6.71;100.00
74960;BME280;63518;49.572;1.106;2023-11-22T10:01:01;101178.97;;;7.44;100.00
74960;BME280;63518;49.572;1.106;2023-11-22T10:03:28;101188.16;;;8.21;100.00
74960;BME280;63518;49.572;1.106;2023-11-22T10:05:58;101191.50;;;7.70;100.00
74960;BME280;63518;49.572;1.106;2023-11-22T10:08:30;101190.84;;;7.26;100.00
74960;BME280;63518;49.572;1.106;2023-11-22T10:10:58;101199.19;;;7.19;100.00
74960;BME280;63518;49.572;1.106;2023-11-22T10:13:26;101211.94;;;6.95;100.00
74960;BME280;63518;49.572;1.106;2023-11-22T10:15:53;101212.94;;;7.01;100.00
74960;BME280;63518;49.572;1.106;2023-11-22T10:18:20;101228.75;;;7.36;100.00
74960;BME280;63518;49.572;1.106;2023-11-22T10:20:49;101235.81;;;7.13;100.00
74960;BME280;63518;49.572;1.106;2023-11-22T10:23:17;101234.56;;;7.76;100.00
74960;BME280;63518;49.572;1.106;2023-11-22T10:25:48;101183.81;;;7.60;100.00
74960;BME280;63518;49.572;1.106;2023-11-22T10:28:22;101208.44;;;9.02;100.00
74960;BME280;63518;49.572;1.106;2023-11-22T10:30:50;101178.06;;;8.85;100.00
74960;BME280;63518;49.572;1.106;2023-11-22T10:33:18;101198.53;;;8.78;100.00
74960;BME280;63518;49.572;1.106;2023-11-22T10:35:50;101213.47;;;8.93;100.00
74960;BME280;63518;49.572;1.106;2023-11-22T10:38:20;101223.97;;;9.60;100.00
74960;BME280;63518;49.572;1.106;2023-11-22T10:40:47;101222.28;;;10.21;100.00
74960;BME280;63518;49.572;1.106;2023-11-22T10:43:17;101224.88;;;10.61;100.00
74960;BME280;63518;49.572;1.106;2023-11-22T10:45:44;101195.19;;;10.90;100.00
74960;BME280;63518;49.572;1.106;2023-11-22T10:48:15;101190.50;;;11.13;100.00
74960;BME280;63518;49.572;1.106;2023-11-22T10:50:44;101163.78;;;10.97;100.00
74960;BME280;63518;49.572;1.106;2023-11-22T10:53:12;101153.94;;;9.04;100.00
74960;BME280;63518;49.572;1.106;2023-11-22T10:55:45;101144.28;;;9.59;100.00
74960;BME280;63518;49.572;1.106;2023-11-22T10:58:15;101141.00;;;10.68;100.00
74960;BME280;63518;49.572;1.106;2023-11-22T11:00:45;101131.75;;;10.57;100.00
74960;BME280;63518;49.572;1.106;2023-11-22T11:03:20;101154.69;;;11.23;100.00
74960;BME280;63518;49.572;1.106;2023-11-22T11:05:58;101149.59;;;11.10;100.00
74960;BME280;63518;49.572;1.106;2023-11-22T11:08:26;101151.25;;;10.89;100.00
74960;BME280;63518;49.572;1.106;2023-11-22T11:10:55;101153.56;;;10.75;100.00
74960;BME280;63518;49.572;1.106;2023-11-22T11:13:22;101187.41;;;9.82;100.00
74960;BME280;63518;49.572;1.106;2023-11-22T11:15:53;101189.84;;;9.49;100.00
74960;BME280;63518;49.572;1.106;2023-11-22T11:18:20;101176.38;;;11.58;100.00
74960;BME280;63518;49.572;1.106;2023-11-22T11:20:51;101196.69;;;12.28;100.00
74960;BME280;63518;49.572;1.106;2023-11-22T11:23:20;101181.09;;;11.09;100.00
74960;BME280;63518;49.572;1.106;2023-11-22T11:25:56;101177.47;;;10.86;100.00
74960;BME280;63518;49.572;1.106;2023-11-22T11:28:24;101190.34;;;11.46;100.00
74960;BME280;63518;49.572;1.106;2023-11-22T11:30:53;101192.38;;;11.29;100.00
74960;BME280;63518;49.572;1.106;2023-11-22T11:33:33;101194.22;;;11.45;100.00
74960;BME280;63518;49.572;1.106;2023-11-22T11:36:02;101191.41;;;11.67;100.00
74960;BME280;63518;49.572;1.106;2023-11-22T11:38:39;101193.22;;;11.84;100.00
74960;BME280;63518;49.572;1.106;2023-11-22T11:41:10;101202.06;;;11.81;100.00
74960;BME280;63518;49.572;1.106;2023-11-22T11:43:43;101186.97;;;10.57;100.00
74960;BME280;63518;49.572;1.106;2023-11-22T11:46:10;101188.75;;;10.29;100.00
74960;BME280;63518;49.572;1.106;2023-11-22T11:48:43;101183.88;;;10.92;100.00
74960;BME280;63518;49.572;1.106;2023-11-22T11:51:13;101184.88;;;11.03;100.00
74960;BME280;63518;49.572;1.106;2023-11-22T11:53:41;101191.44;;;10.24;100.00
74960;BME280;63518;49.572;1.106;2023-11-22T11:56:09;101198.72;;;10.47;100.00
74960;BME280;63518;49.572;1.106;2023-11-22T11:58:36;101178.97;;;10.94;100.00
74960;BME280;63518;49.572;1.106;2023-11-22T12:01:07;101182.41;;;11.28;100.00
74960;BME280;63518;49.572;1.106;2023-11-22T12:03:35;101192.63;;;12.04;100.00
74960;BME280;63518;49.572;1.106;2023-11-22T12:06:03;101179.13;;;12.12;100.00
74960;BME280;63518;49.572;1.106;2023-11-22T12:08:30;101195.63;;;12.81;100.00
74960;BME280;63518;49.572;1.106;2023-11-22T12:11:03;101174.59;;;12.38;100.00
74960;BME280;63518;49.572;1.106;2023-11-22T12:13:38;101158.25;;;12.37;100.00
74960;BME280;63518;49.572;1.106;2023-11-22T12:16:05;101166.94;;;13.03;100.00
74960;BME280;63518;49.572;1.106;2023-11-22T12:18:44;101140.88;;;13.04;100.00
74960;BME280;63518;49.572;1.106;2023-11-22T12:21:11;101179.81;;;13.24;100.00
74960;BME280;63518;49.572;1.106;2023-11-22T12:23:40;101182.63;;;13.45;100.00
74960;BME280;63518;49.572;1.106;2023-11-22T12:26:15;101166.28;;;12.85;100.00
74960;BME280;63518;49.572;1.106;2023-11-22T12:28:46;101177.00;;;12.24;100.00
74960;BME280;63518;49.572;1.106;2023-11-22T12:31:26;101136.53;;;10.45;100.00
74960;BME280;63518;49.572;1.106;2023-11-22T12:33:56;101150.31;;;11.54;100.00
74960;BME280;63518;49.572;1.106;2023-11-22T12:36:23;101148.91;;;11.79;100.00
74960;BME280;63518;49.572;1.106;2023-11-22T12:38:50;101132.28;;;10.37;100.00
74960;BME280;63518;49.572;1.106;2023-11-22T12:41:16;101118.97;;;11.43;100.00
74960;BME280;63518;49.572;1.106;2023-11-22T12:44:01;101101.66;;;11.53;100.00
74960;BME280;63518;49.572;1.106;2023-11-22T12:46:28;101121.75;;;12.45;100.00
74960;BME280;63518;49.572;1.106;2023-11-22T12:49:10;101146.03;;;11.95;100.00
74960;BME280;63518;49.572;1.106;2023-11-22T12:51:37;101130.44;;;10.81;100.00